sensor_id;sensor_type;location;lat;lon;timestamp;temperature;humidity
22450;DHT22;11392;57.390;-2.468;2022-11-15T00:01:09;9.40;99.90
22450;DHT22;11392;57.390;-2.468;2022-11-15T00:03:36;9.40;99.90
22450;DHT22;11392;57.390;-2.468;2022-11-15T00:06:03;9.50;99.90
22450;DHT22;11392;57.390;-2.468;2022-11-15T00:08:32;9.40;99.90
22450;DHT22;11392;57.390;-2.468;2022-11-15T00:11:00;9.40;99.90
22450;DHT22;11392;57.390;-2.468;2022-11-15T00:13:28;9.40;99.90
22450;DHT22;11392;57.390;-2.468;2022-11-15T00:15:57;9.40;99.90
22450;DHT22;11392;57.390;-2.468;2022-11-15T00:18:25;9.50;99.90
22450;DHT22;11392;57.390;-2.468;2022-11-15T00:20:52;9.40;99.90
22450;DHT22;11392;57.390;-2.468;2022-11-15T00:23:19;9.50;99.90
22450;DHT22;11392;57.390;-2.468;2022-11-15T00:25:46;9.50;99.90
22450;DHT22;11392;57.390;-2.468;2022-11-15T00:28:13;9.50;99.90
22450;DHT22;11392;57.390;-2.468;2022-11-15T00:30:40;9.50;99.90
22450;DHT22;11392;57.390;-2.468;2022-11-15T00:33:08;9.50;99.90
22450;DHT22;11392;57.390;-2.468;2022-11-15T00:35:36;9.40;99.90
22450;DHT22;11392;57.390;-2.468;2022-11-15T00:38:03;9.50;99.90
22450;DHT22;11392;57.390;-2.468;2022-11-15T00:40:30;9.40;99.90
22450;DHT22;11392;57.390;-2.468;2022-11-15T00:42:57;9.50;99.90
22450;DHT22;11392;57.390;-2.468;2022-11-15T00:45:24;9.50;99.90
22450;DHT22;11392;57.390;-2.468;2022-11-15T00:47:52;9.40;99.90
22450;DHT22;11392;57.390;-2.468;2022-11-15T00:50:19;9.50;99.90
22450;DHT22;11392;57.390;-2.468;2022-11-15T00:52:46;9.50;99.90
22450;DHT22;11392;57.390;-2.468;2022-11-15T00:55:18;9.50;99.90
22450;DHT22;11392;57.390;-2.468;2022-11-15T00:57:46;9.50;99.90
22450;DHT22;11392;57.390;-2.468;2022-11-15T01:00:13;9.50;99.90
22450;DHT22;11392;57.390;-2.468;2022-11-15T01:02:40;9.40;99.90
22450;DHT22;11392;57.390;-2.468;2022-11-15T01:05:08;9.50;99.90
22450;DHT22;11392;57.390;-2.468;2022-11-15T01:07:35;9.50;99.90
22450;DHT22;11392;57.390;-2.468;2022-11-15T01:10:02;9.50;99.90
22450;DHT22;11392;57.390;-2.468;2022-11-15T01:12:30;9.50;99.90
22450;DHT22;11392;57.390;-2.468;2022-11-15T01:14:57;9.40;99.90
22450;DHT22;11392;57.390;-2.468;2022-11-15T01:17:24;9.50;99.90
22450;DHT22;11392;57.390;-2.468;2022-11-15T01:19:51;9.60;99.90
22450;DHT22;11392;57.390;-2.468;2022-11-15T01:22:18;9.60;99.90
22450;DHT22;11392;57.390;-2.468;2022-11-15T01:24:45;9.60;99.90
22450;DHT22;11392;57.390;-2.468;2022-11-15T01:27:11;9.60;99.90
22450;DHT22;11392;57.390;-2.468;2022-11-15T01:29:39;9.60;99.90
22450;DHT22;11392;57.390;-2.468;2022-11-15T01:32:06;9.70;99.90
22450;DHT22;11392;57.390;-2.468;2022-11-15T01:34:33;9.60;99.90
22450;DHT22;11392;57.390;-2.468;2022-11-15T01:37:00;9.60;99.90
22450;DHT22;11392;57.390;-2.468;2022-11-15T01:39:27;9.70;99.90
22450;DHT22;11392;57.390;-2.468;2022-11-15T01:41:55;9.60;99.90
22450;DHT22;11392;57.390;-2.468;2022-11-15T01:47:00;9.60;99.90
22450;DHT22;11392;57.390;-2.468;2022-11-15T01:49:30;9.60;99.90
22450;DHT22;11392;57.390;-2.468;2022-11-15T01:52:00;9.60;99.90
22450;DHT22;11392;57.390;-2.468;2022-11-15T01:54:28;9.60;99.90
22450;DHT22;11392;57.390;-2.468;2022-11-15T01:57:01;9.60;99.90
22450;DHT22;11392;57.390;-2.468;2022-11-15T01:59:30;9.70;99.90
22450;DHT22;11392;57.390;-2.468;2022-11-15T02:01:57;9.60;99.90
22450;DHT22;11392;57.390;-2.468;2022-11-15T02:04:25;9.70;99.90
22450;DHT22;11392;57.390;-2.468;2022-11-15T02:06:53;9.60;99.90
22450;DHT22;11392;57.390;-2.468;2022-11-15T02:09:20;9.70;99.90
22450;DHT22;11392;57.390;-2.468;2022-11-15T02:11:47;9.70;99.90
22450;DHT22;11392;57.390;-2.468;2022-11-15T02:14:16;9.70;99.90
22450;DHT22;11392;57.390;-2.468;2022-11-15T02:23:12;9.70;99.90
22450;DHT22;11392;57.390;-2.468;2022-11-15T02:29:35;9.70;99.90
22450;DHT22;11392;57.390;-2.468;2022-11-15T02:31:41;9.70;99.90
22450;DHT22;11392;57.390;-2.468;2022-11-15T02:37:15;9.70;99.90
22450;DHT22;11392;57.390;-2.468;2022-11-15T02:39:54;9.70;99.90
22450;DHT22;11392;57.390;-2.468;2022-11-15T02:42:28;9.70;99.90
22450;DHT22;11392;57.390;-2.468;2022-11-15T02:45:27;9.70;99.90
22450;DHT22;11392;57.390;-2.468;2022-11-15T02:47:57;9.70;99.90
22450;DHT22;11392;57.390;-2.468;2022-11-15T02:50:28;9.60;99.90
22450;DHT22;11392;57.390;-2.468;2022-11-15T02:52:55;9.60;99.90
22450;DHT22;11392;57.390;-2.468;2022-11-15T02:55:36;9.60;99.90
22450;DHT22;11392;57.390;-2.468;2022-11-15T02:58:28;9.60;99.90
22450;DHT22;11392;57.390;-2.468;2022-11-15T03:06:56;9.50;99.90
22450;DHT22;11392;57.390;-2.468;2022-11-15T03:09:42;9.50;99.90
22450;DHT22;11392;57.390;-2.468;2022-11-15T03:12:30;9.50;99.90
22450;DHT22;11392;57.390;-2.468;2022-11-15T03:15:28;9.40;99.90
22450;DHT22;11392;57.390;-2.468;2022-11-15T03:18:02;9.40;99.90
22450;DHT22;11392;57.390;-2.468;2022-11-15T03:20:31;9.50;99.90
22450;DHT22;11392;57.390;-2.468;2022-11-15T03:23:10;9.40;99.90
22450;DHT22;11392;57.390;-2.468;2022-11-15T03:25:47;9.40;99.90
22450;DHT22;11392;57.390;-2.468;2022-11-15T03:28:24;9.40;99.90
22450;DHT22;11392;57.390;-2.468;2022-11-15T03:30:54;9.50;99.90
22450;DHT22;11392;57.390;-2.468;2022-11-15T03:33:22;9.40;99.90
22450;DHT22;11392;57.390;-2.468;2022-11-15T03:35:50;9.40;99.90
22450;DHT22;11392;57.390;-2.468;2022-11-15T03:38:25;9.40;99.90
22450;DHT22;11392;57.390;-2.468;2022-11-15T03:43:33;9.40;99.90
22450;DHT22;11392;57.390;-2.468;2022-11-15T03:46:09;9.40;99.90
22450;DHT22;11392;57.390;-2.468;2022-11-15T03:48:41;9.40;99.90
22450;DHT22;11392;57.390;-2.468;2022-11-15T03:51:10;9.40;99.90
22450;DHT22;11392;57.390;-2.468;2022-11-15T03:53:37;9.40;99.90
22450;DHT22;11392;57.390;-2.468;2022-11-15T03:56:05;9.40;99.90
22450;DHT22;11392;57.390;-2.468;2022-11-15T03:58:32;9.40;99.90
22450;DHT22;11392;57.390;-2.468;2022-11-15T04:00:59;9.40;99.90
22450;DHT22;11392;57.390;-2.468;2022-11-15T04:03:26;9.50;99.90
22450;DHT22;11392;57.390;-2.468;2022-11-15T04:05:53;9.40;99.90
22450;DHT22;11392;57.390;-2.468;2022-11-15T04:08:20;9.40;99.90
22450;DHT22;11392;57.390;-2.468;2022-11-15T04:10:49;9.40;99.90
22450;DHT22;11392;57.390;-2.468;2022-11-15T04:13:16;9.40;99.90
22450;DHT22;11392;57.390;-2.468;2022-11-15T04:15:42;9.40;99.90
22450;DHT22;11392;57.390;-2.468;2022-11-15T04:18:09;9.40;99.90
22450;DHT22;11392;57.390;-2.468;2022-11-15T04:20:36;9.30;99.90
22450;DHT22;11392;57.390;-2.468;2022-11-15T04:23:23;9.30;99.90
22450;DHT22;11392;57.390;-2.468;2022-11-15T04:26:11;9.30;99.90
22450;DHT22;11392;57.390;-2.468;2022-11-15T04:28:39;9.30;99.90
22450;DHT22;11392;57.390;-2.468;2022-11-15T04:31:26;9.30;99.90
22450;DHT22;11392;57.390;-2.468;2022-11-15T04:33:54;9.30;99.90
22450;DHT22;11392;57.390;-2.468;2022-11-15T04:36:21;9.30;99.90
22450;DHT22;11392;57.390;-2.468;2022-11-15T04:39:07;9.30;99.90
22450;DHT22;11392;57.390;-2.468;2022-11-15T04:41:34;9.30;99.90
22450;DHT22;11392;57.390;-2.468;2022-11-15T04:44:01;9.30;99.90
22450;DHT22;11392;57.390;-2.468;2022-11-15T04:46:28;9.30;99.90
22450;DHT22;11392;57.390;-2.468;2022-11-15T04:48:55;9.40;99.90
22450;DHT22;11392;57.390;-2.468;2022-11-15T04:51:25;9.30;99.90
22450;DHT22;11392;57.390;-2.468;2022-11-15T04:53:52;9.40;99.90
22450;DHT22;11392;57.390;-2.468;2022-11-15T04:56:19;9.40;99.90
22450;DHT22;11392;57.390;-2.468;2022-11-15T04:58:49;9.40;99.90
22450;DHT22;11392;57.390;-2.468;2022-11-15T05:01:16;9.40;99.90
22450;DHT22;11392;57.390;-2.468;2022-11-15T05:03:44;9.40;99.90
22450;DHT22;11392;57.390;-2.468;2022-11-15T05:06:30;9.40;99.90
22450;DHT22;11392;57.390;-2.468;2022-11-15T05:08:57;9.40;99.90
22450;DHT22;11392;57.390;-2.468;2022-11-15T05:11:24;9.40;99.90
22450;DHT22;11392;57.390;-2.468;2022-11-15T05:13:51;9.40;99.90
22450;DHT22;11392;57.390;-2.468;2022-11-15T05:16:18;9.40;99.90
22450;DHT22;11392;57.390;-2.468;2022-11-15T05:18:45;9.40;99.90
22450;DHT22;11392;57.390;-2.468;2022-11-15T05:21:14;9.40;99.90
22450;DHT22;11392;57.390;-2.468;2022-11-15T05:23:41;9.40;99.90
22450;DHT22;11392;57.390;-2.468;2022-11-15T05:26:09;9.40;99.90
22450;DHT22;11392;57.390;-2.468;2022-11-15T05:28:36;9.40;99.90
22450;DHT22;11392;57.390;-2.468;2022-11-15T05:31:09;9.40;99.90
22450;DHT22;11392;57.390;-2.468;2022-11-15T05:33:37;9.40;99.90
22450;DHT22;11392;57.390;-2.468;2022-11-15T05:36:17;9.30;99.90
22450;DHT22;11392;57.390;-2.468;2022-11-15T05:38:48;9.40;99.90
22450;DHT22;11392;57.390;-2.468;2022-11-15T05:41:17;9.30;99.90
22450;DHT22;11392;57.390;-2.468;2022-11-15T05:43:46;9.40;99.90
22450;DHT22;11392;57.390;-2.468;2022-11-15T05:46:13;9.40;99.90
22450;DHT22;11392;57.390;-2.468;2022-11-15T05:48:44;9.40;99.90
22450;DHT22;11392;57.390;-2.468;2022-11-15T05:51:14;9.40;99.90
22450;DHT22;11392;57.390;-2.468;2022-11-15T05:53:42;9.40;99.90
22450;DHT22;11392;57.390;-2.468;2022-11-15T05:56:10;9.40;99.90
22450;DHT22;11392;57.390;-2.468;2022-11-15T05:58:37;9.40;99.90
22450;DHT22;11392;57.390;-2.468;2022-11-15T06:01:05;9.40;99.90
22450;DHT22;11392;57.390;-2.468;2022-11-15T06:03:32;9.50;99.90
22450;DHT22;11392;57.390;-2.468;2022-11-15T06:05:59;9.40;99.90
22450;DHT22;11392;57.390;-2.468;2022-11-15T06:08:27;9.40;99.90
22450;DHT22;11392;57.390;-2.468;2022-11-15T06:10:53;9.50;99.90
22450;DHT22;11392;57.390;-2.468;2022-11-15T06:13:20;9.50;99.90
22450;DHT22;11392;57.390;-2.468;2022-11-15T06:15:47;9.50;99.90
22450;DHT22;11392;57.390;-2.468;2022-11-15T06:18:14;9.50;99.90
22450;DHT22;11392;57.390;-2.468;2022-11-15T06:20:41;9.50;99.90
22450;DHT22;11392;57.390;-2.468;2022-11-15T06:23:08;9.50;99.90
22450;DHT22;11392;57.390;-2.468;2022-11-15T06:25:35;9.50;99.90
22450;DHT22;11392;57.390;-2.468;2022-11-15T06:28:02;9.60;99.90
22450;DHT22;11392;57.390;-2.468;2022-11-15T06:30:29;9.60;99.90
22450;DHT22;11392;57.390;-2.468;2022-11-15T06:33:00;9.60;99.90
22450;DHT22;11392;57.390;-2.468;2022-11-15T06:35:29;9.60;99.90
22450;DHT22;11392;57.390;-2.468;2022-11-15T06:37:56;9.70;99.90
22450;DHT22;11392;57.390;-2.468;2022-11-15T06:40:28;9.70;99.90
22450;DHT22;11392;57.390;-2.468;2022-11-15T06:43:01;9.70;99.90
22450;DHT22;11392;57.390;-2.468;2022-11-15T06:45:28;9.70;99.90
22450;DHT22;11392;57.390;-2.468;2022-11-15T06:47:55;9.70;99.90
22450;DHT22;11392;57.390;-2.468;2022-11-15T06:50:23;9.80;99.90
22450;DHT22;11392;57.390;-2.468;2022-11-15T06:52:50;9.80;99.90
22450;DHT22;11392;57.390;-2.468;2022-11-15T06:55:17;9.80;99.90
22450;DHT22;11392;57.390;-2.468;2022-11-15T06:57:51;9.80;99.90
22450;DHT22;11392;57.390;-2.468;2022-11-15T07:00:20;9.80;99.90
22450;DHT22;11392;57.390;-2.468;2022-11-15T07:02:47;9.90;99.90
22450;DHT22;11392;57.390;-2.468;2022-11-15T07:05:15;9.90;99.90
22450;DHT22;11392;57.390;-2.468;2022-11-15T07:07:42;9.80;99.90
22450;DHT22;11392;57.390;-2.468;2022-11-15T07:10:09;9.90;99.90
22450;DHT22;11392;57.390;-2.468;2022-11-15T07:12:36;9.90;99.90
22450;DHT22;11392;57.390;-2.468;2022-11-15T07:15:03;9.90;99.90
22450;DHT22;11392;57.390;-2.468;2022-11-15T07:17:31;9.90;99.90
22450;DHT22;11392;57.390;-2.468;2022-11-15T07:19:58;9.90;99.90
22450;DHT22;11392;57.390;-2.468;2022-11-15T07:22:25;10.00;99.90
22450;DHT22;11392;57.390;-2.468;2022-11-15T07:24:52;10.00;99.90
22450;DHT22;11392;57.390;-2.468;2022-11-15T07:27:19;10.00;99.90
22450;DHT22;11392;57.390;-2.468;2022-11-15T07:29:46;9.90;99.90
22450;DHT22;11392;57.390;-2.468;2022-11-15T07:32:13;9.90;99.90
22450;DHT22;11392;57.390;-2.468;2022-11-15T07:34:40;10.00;99.90
22450;DHT22;11392;57.390;-2.468;2022-11-15T07:37:07;10.00;99.90
22450;DHT22;11392;57.390;-2.468;2022-11-15T07:39:34;9.90;99.90
22450;DHT22;11392;57.390;-2.468;2022-11-15T07:42:01;10.00;99.90
22450;DHT22;11392;57.390;-2.468;2022-11-15T07:44:47;10.00;99.90
22450;DHT22;11392;57.390;-2.468;2022-11-15T07:47:14;10.00;99.90
22450;DHT22;11392;57.390;-2.468;2022-11-15T07:49:41;10.00;99.90
22450;DHT22;11392;57.390;-2.468;2022-11-15T07:52:08;10.00;99.90
22450;DHT22;11392;57.390;-2.468;2022-11-15T07:54:35;9.90;99.90
22450;DHT22;11392;57.390;-2.468;2022-11-15T07:57:02;9.90;99.90
22450;DHT22;11392;57.390;-2.468;2022-11-15T07:59:33;9.90;99.90
22450;DHT22;11392;57.390;-2.468;2022-11-15T08:02:02;9.90;99.90
22450;DHT22;11392;57.390;-2.468;2022-11-15T08:04:29;9.90;99.90
22450;DHT22;11392;57.390;-2.468;2022-11-15T08:06:56;9.90;99.90
22450;DHT22;11392;57.390;-2.468;2022-11-15T08:09:24;9.90;99.90
22450;DHT22;11392;57.390;-2.468;2022-11-15T08:11:50;9.80;99.90
22450;DHT22;11392;57.390;-2.468;2022-11-15T08:14:17;9.90;99.90
22450;DHT22;11392;57.390;-2.468;2022-11-15T08:16:44;9.90;99.90
22450;DHT22;11392;57.390;-2.468;2022-11-15T08:19:11;9.90;99.90
22450;DHT22;11392;57.390;-2.468;2022-11-15T08:21:38;9.90;99.90
22450;DHT22;11392;57.390;-2.468;2022-11-15T08:24:07;9.80;99.90
22450;DHT22;11392;57.390;-2.468;2022-11-15T08:26:35;9.90;99.90
22450;DHT22;11392;57.390;-2.468;2022-11-15T08:29:02;9.90;99.90
22450;DHT22;11392;57.390;-2.468;2022-11-15T08:31:28;9.90;99.90
22450;DHT22;11392;57.390;-2.468;2022-11-15T08:33:56;9.90;99.90
22450;DHT22;11392;57.390;-2.468;2022-11-15T08:36:23;9.90;99.90
22450;DHT22;11392;57.390;-2.468;2022-11-15T08:38:49;9.90;99.90
22450;DHT22;11392;57.390;-2.468;2022-11-15T08:41:26;9.90;99.90
22450;DHT22;11392;57.390;-2.468;2022-11-15T08:43:54;9.90;99.90
22450;DHT22;11392;57.390;-2.468;2022-11-15T08:46:21;9.90;99.90
22450;DHT22;11392;57.390;-2.468;2022-11-15T08:48:48;9.90;99.90
22450;DHT22;11392;57.390;-2.468;2022-11-15T08:51:15;9.90;99.90
22450;DHT22;11392;57.390;-2.468;2022-11-15T08:53:42;9.90;99.90
22450;DHT22;11392;57.390;-2.468;2022-11-15T08:56:11;9.90;99.90
22450;DHT22;11392;57.390;-2.468;2022-11-15T08:58:39;9.90;99.90
22450;DHT22;11392;57.390;-2.468;2022-11-15T09:01:06;9.90;99.90
22450;DHT22;11392;57.390;-2.468;2022-11-15T09:03:33;9.90;99.90
22450;DHT22;11392;57.390;-2.468;2022-11-15T09:06:01;9.90;99.90
22450;DHT22;11392;57.390;-2.468;2022-11-15T09:08:30;9.90;99.90
22450;DHT22;11392;57.390;-2.468;2022-11-15T09:11:14;9.90;99.90
22450;DHT22;11392;57.390;-2.468;2022-11-15T09:13:43;9.90;99.90
22450;DHT22;11392;57.390;-2.468;2022-11-15T09:16:10;9.90;99.90
22450;DHT22;11392;57.390;-2.468;2022-11-15T09:18:38;9.90;99.90
22450;DHT22;11392;57.390;-2.468;2022-11-15T09:21:05;9.90;99.90
22450;DHT22;11392;57.390;-2.468;2022-11-15T09:23:33;9.90;99.90
22450;DHT22;11392;57.390;-2.468;2022-11-15T09:26:01;9.90;99.90
22450;DHT22;11392;57.390;-2.468;2022-11-15T09:28:30;9.90;99.90
22450;DHT22;11392;57.390;-2.468;2022-11-15T09:31:02;9.80;99.90
22450;DHT22;11392;57.390;-2.468;2022-11-15T09:33:30;9.90;99.90
22450;DHT22;11392;57.390;-2.468;2022-11-15T09:36:08;9.90;99.90
22450;DHT22;11392;57.390;-2.468;2022-11-15T09:38:36;9.80;99.90
22450;DHT22;11392;57.390;-2.468;2022-11-15T09:49:04;9.90;99.90
22450;DHT22;11392;57.390;-2.468;2022-11-15T09:51:34;9.80;99.90
22450;DHT22;11392;57.390;-2.468;2022-11-15T09:57:14;9.90;99.90
22450;DHT22;11392;57.390;-2.468;2022-11-15T09:59:59;9.90;99.90
22450;DHT22;11392;57.390;-2.468;2022-11-15T10:03:06;9.90;99.90
22450;DHT22;11392;57.390;-2.468;2022-11-15T10:05:46;9.90;99.90
22450;DHT22;11392;57.390;-2.468;2022-11-15T10:11:09;9.90;99.90
22450;DHT22;11392;57.390;-2.468;2022-11-15T10:14:00;9.90;99.90
22450;DHT22;11392;57.390;-2.468;2022-11-15T10:22:41;10.00;99.90
22450;DHT22;11392;57.390;-2.468;2022-11-15T10:25:21;9.90;99.90
22450;DHT22;11392;57.390;-2.468;2022-11-15T10:30:36;10.00;99.90
22450;DHT22;11392;57.390;-2.468;2022-11-15T10:36:18;10.00;99.90
22450;DHT22;11392;57.390;-2.468;2022-11-15T10:41:17;10.00;99.90
22450;DHT22;11392;57.390;-2.468;2022-11-15T10:43:45;10.00;99.90
22450;DHT22;11392;57.390;-2.468;2022-11-15T10:46:23;10.00;99.90
22450;DHT22;11392;57.390;-2.468;2022-11-15T10:49:20;10.00;99.90
22450;DHT22;11392;57.390;-2.468;2022-11-15T10:51:55;10.00;99.90
22450;DHT22;11392;57.390;-2.468;2022-11-15T10:54:43;10.00;99.90
22450;DHT22;11392;57.390;-2.468;2022-11-15T10:57:21;10.00;99.90
22450;DHT22;11392;57.390;-2.468;2022-11-15T10:59:52;10.00;99.90
22450;DHT22;11392;57.390;-2.468;2022-11-15T11:05:03;10.00;99.90
22450;DHT22;11392;57.390;-2.468;2022-11-15T11:07:33;10.00;99.90
22450;DHT22;11392;57.390;-2.468;2022-11-15T11:12:48;10.00;99.90
22450;DHT22;11392;57.390;-2.468;2022-11-15T11:15:16;10.00;99.90
22450;DHT22;11392;57.390;-2.468;2022-11-15T11:18:06;10.10;99.90
22450;DHT22;11392;57.390;-2.468;2022-11-15T11:20:43;10.10;99.90
22450;DHT22;11392;57.390;-2.468;2022-11-15T11:23:36;10.10;99.90
22450;DHT22;11392;57.390;-2.468;2022-11-15T11:37:17;10.10;99.90
22450;DHT22;11392;57.390;-2.468;2022-11-15T11:50:53;10.20;99.90
22450;DHT22;11392;57.390;-2.468;2022-11-15T11:53:37;10.20;99.90
22450;DHT22;11392;57.390;-2.468;2022-11-15T11:56:22;10.20;99.90
22450;DHT22;11392;57.390;-2.468;2022-11-15T11:58:50;10.20;99.90
22450;DHT22;11392;57.390;-2.468;2022-11-15T12:01:29;10.20;99.90
22450;DHT22;11392;57.390;-2.468;2022-11-15T12:04:19;10.30;99.90
22450;DHT22;11392;57.390;-2.468;2022-11-15T12:07:00;10.30;99.90
22450;DHT22;11392;57.390;-2.468;2022-11-15T12:12:09;10.30;99.90
22450;DHT22;11392;57.390;-2.468;2022-11-15T12:17:37;10.20;99.90
22450;DHT22;11392;57.390;-2.468;2022-11-15T12:20:17;10.20;99.90
22450;DHT22;11392;57.390;-2.468;2022-11-15T12:23:12;10.30;99.90
22450;DHT22;11392;57.390;-2.468;2022-11-15T12:26:17;10.30;99.90
22450;DHT22;11392;57.390;-2.468;2022-11-15T12:28:48;10.40;99.90
22450;DHT22;11392;57.390;-2.468;2022-11-15T12:31:40;10.30;99.90
22450;DHT22;11392;57.390;-2.468;2022-11-15T12:36:48;10.40;99.90
22450;DHT22;11392;57.390;-2.468;2022-11-15T12:39:16;10.90;99.90
22450;DHT22;11392;57.390;-2.468;2022-11-15T12:47:25;11.20;99.90
22450;DHT22;11392;57.390;-2.468;2022-11-15T12:49:53;11.10;99.90
22450;DHT22;11392;57.390;-2.468;2022-11-15T12:52:20;10.90;99.90
22450;DHT22;11392;57.390;-2.468;2022-11-15T12:54:53;10.80;99.90
22450;DHT22;11392;57.390;-2.468;2022-11-15T12:57:30;10.80;99.90
22450;DHT22;11392;57.390;-2.468;2022-11-15T13:00:02;10.70;99.90
22450;DHT22;11392;57.390;-2.468;2022-11-15T13:02:38;10.70;99.90
22450;DHT22;11392;57.390;-2.468;2022-11-15T13:17:54;10.40;99.90
22450;DHT22;11392;57.390;-2.468;2022-11-15T13:20:30;10.30;99.90
22450;DHT22;11392;57.390;-2.468;2022-11-15T13:23:07;10.30;99.90
22450;DHT22;11392;57.390;-2.468;2022-11-15T13:30:56;10.20;99.90
22450;DHT22;11392;57.390;-2.468;2022-11-15T13:33:35;10.20;99.90
22450;DHT22;11392;57.390;-2.468;2022-11-15T13:38:41;10.20;99.90
22450;DHT22;11392;57.390;-2.468;2022-11-15T13:41:18;10.20;99.90
22450;DHT22;11392;57.390;-2.468;2022-11-15T13:43:50;10.20;99.90
22450;DHT22;11392;57.390;-2.468;2022-11-15T13:46:27;10.20;99.90
22450;DHT22;11392;57.390;-2.468;2022-11-15T13:54:56;10.20;99.90
22450;DHT22;11392;57.390;-2.468;2022-11-15T13:57:27;10.20;99.90
22450;DHT22;11392;57.390;-2.468;2022-11-15T14:00:06;10.10;99.90
22450;DHT22;11392;57.390;-2.468;2022-11-15T14:02:43;10.20;99.90
22450;DHT22;11392;57.390;-2.468;2022-11-15T14:05:22;10.20;99.90
22450;DHT22;11392;57.390;-2.468;2022-11-15T14:07:55;10.20;99.90
22450;DHT22;11392;57.390;-2.468;2022-11-15T14:10:29;10.20;99.90
22450;DHT22;11392;57.390;-2.468;2022-11-15T14:12:58;10.20;99.90
22450;DHT22;11392;57.390;-2.468;2022-11-15T14:17:57;10.20;99.90
22450;DHT22;11392;57.390;-2.468;2022-11-15T14:20:33;10.20;99.90
22450;DHT22;11392;57.390;-2.468;2022-11-15T14:25:58;10.20;99.90
22450;DHT22;11392;57.390;-2.468;2022-11-15T14:30:55;10.20;99.90
22450;DHT22;11392;57.390;-2.468;2022-11-15T14:33:36;10.20;99.90
22450;DHT22;11392;57.390;-2.468;2022-11-15T14:36:10;10.10;99.90
22450;DHT22;11392;57.390;-2.468;2022-11-15T14:38:38;10.10;99.90
22450;DHT22;11392;57.390;-2.468;2022-11-15T14:41:05;10.10;99.90
22450;DHT22;11392;57.390;-2.468;2022-11-15T14:43:32;10.00;99.90
22450;DHT22;11392;57.390;-2.468;2022-11-15T14:45:59;10.00;99.90
22450;DHT22;11392;57.390;-2.468;2022-11-15T14:48:27;10.00;99.90
22450;DHT22;11392;57.390;-2.468;2022-11-15T14:50:54;10.00;99.90
22450;DHT22;11392;57.390;-2.468;2022-11-15T14:53:21;9.90;99.90
22450;DHT22;11392;57.390;-2.468;2022-11-15T14:55:49;9.90;99.90
22450;DHT22;11392;57.390;-2.468;2022-11-15T14:58:15;9.90;99.90
22450;DHT22;11392;57.390;-2.468;2022-11-15T15:00:42;9.90;99.90
22450;DHT22;11392;57.390;-2.468;2022-11-15T15:03:10;9.90;99.90
22450;DHT22;11392;57.390;-2.468;2022-11-15T15:05:43;9.90;99.90
22450;DHT22;11392;57.390;-2.468;2022-11-15T15:08:10;9.90;99.90
22450;DHT22;11392;57.390;-2.468;2022-11-15T15:10:43;9.90;99.90
22450;DHT22;11392;57.390;-2.468;2022-11-15T15:13:22;9.90;99.90
22450;DHT22;11392;57.390;-2.468;2022-11-15T15:15:50;9.90;99.90
22450;DHT22;11392;57.390;-2.468;2022-11-15T15:18:18;10.00;99.90
22450;DHT22;11392;57.390;-2.468;2022-11-15T15:20:53;9.90;99.90
22450;DHT22;11392;57.390;-2.468;2022-11-15T15:23:21;10.00;99.90
22450;DHT22;11392;57.390;-2.468;2022-11-15T15:25:49;10.00;99.90
22450;DHT22;11392;57.390;-2.468;2022-11-15T15:28:16;10.00;99.90
22450;DHT22;11392;57.390;-2.468;2022-11-15T15:30:43;10.00;99.90
22450;DHT22;11392;57.390;-2.468;2022-11-15T15:33:10;10.00;99.90
22450;DHT22;11392;57.390;-2.468;2022-11-15T15:35:37;10.00;99.90
22450;DHT22;11392;57.390;-2.468;2022-11-15T15:38:05;10.00;99.90
22450;DHT22;11392;57.390;-2.468;2022-11-15T15:40:33;10.00;99.90
22450;DHT22;11392;57.390;-2.468;2022-11-15T15:43:00;10.00;99.90
22450;DHT22;11392;57.390;-2.468;2022-11-15T15:45:27;9.90;99.90
22450;DHT22;11392;57.390;-2.468;2022-11-15T15:47:55;10.00;99.90
22450;DHT22;11392;57.390;-2.468;2022-11-15T15:50:23;9.90;99.90
22450;DHT22;11392;57.390;-2.468;2022-11-15T15:52:52;9.90;99.90
22450;DHT22;11392;57.390;-2.468;2022-11-15T15:55:20;9.90;99.90
22450;DHT22;11392;57.390;-2.468;2022-11-15T15:57:47;9.90;99.90
22450;DHT22;11392;57.390;-2.468;2022-11-15T16:00:15;9.90;99.90
22450;DHT22;11392;57.390;-2.468;2022-11-15T16:02:43;9.90;99.90
22450;DHT22;11392;57.390;-2.468;2022-11-15T16:05:10;9.90;99.90
22450;DHT22;11392;57.390;-2.468;2022-11-15T16:07:38;10.00;99.90
22450;DHT22;11392;57.390;-2.468;2022-11-15T16:10:27;9.90;99.90
22450;DHT22;11392;57.390;-2.468;2022-11-15T16:12:56;10.00;99.90
22450;DHT22;11392;57.390;-2.468;2022-11-15T16:15:26;10.00;99.90
22450;DHT22;11392;57.390;-2.468;2022-11-15T16:17:55;10.00;99.90
22450;DHT22;11392;57.390;-2.468;2022-11-15T16:20:46;10.10;99.90
22450;DHT22;11392;57.390;-2.468;2022-11-15T16:23:17;10.10;99.90
22450;DHT22;11392;57.390;-2.468;2022-11-15T16:25:51;10.10;99.90
22450;DHT22;11392;57.390;-2.468;2022-11-15T16:28:23;10.10;99.90
22450;DHT22;11392;57.390;-2.468;2022-11-15T16:31:05;10.20;99.90
22450;DHT22;11392;57.390;-2.468;2022-11-15T16:33:34;10.10;99.90
22450;DHT22;11392;57.390;-2.468;2022-11-15T16:36:03;10.10;99.90
22450;DHT22;11392;57.390;-2.468;2022-11-15T16:38:30;10.20;99.90
22450;DHT22;11392;57.390;-2.468;2022-11-15T16:40:58;10.20;99.90
22450;DHT22;11392;57.390;-2.468;2022-11-15T16:43:25;10.20;99.90
22450;DHT22;11392;57.390;-2.468;2022-11-15T16:45:54;10.20;99.90
22450;DHT22;11392;57.390;-2.468;2022-11-15T16:48:26;10.20;99.90
22450;DHT22;11392;57.390;-2.468;2022-11-15T16:50:55;10.20;99.90
22450;DHT22;11392;57.390;-2.468;2022-11-15T16:53:24;10.30;99.90
22450;DHT22;11392;57.390;-2.468;2022-11-15T16:55:51;10.30;99.90
22450;DHT22;11392;57.390;-2.468;2022-11-15T16:58:18;10.20;99.90
22450;DHT22;11392;57.390;-2.468;2022-11-15T17:00:45;10.30;99.90
22450;DHT22;11392;57.390;-2.468;2022-11-15T17:03:15;10.30;99.90
22450;DHT22;11392;57.390;-2.468;2022-11-15T17:05:42;10.30;99.90
22450;DHT22;11392;57.390;-2.468;2022-11-15T17:08:09;10.30;99.90
22450;DHT22;11392;57.390;-2.468;2022-11-15T17:10:39;10.30;99.90
22450;DHT22;11392;57.390;-2.468;2022-11-15T17:13:11;10.30;99.90
22450;DHT22;11392;57.390;-2.468;2022-11-15T17:15:39;10.40;99.90
22450;DHT22;11392;57.390;-2.468;2022-11-15T17:18:08;10.30;99.90
22450;DHT22;11392;57.390;-2.468;2022-11-15T17:20:36;10.40;99.90
22450;DHT22;11392;57.390;-2.468;2022-11-15T17:23:03;10.40;99.90
22450;DHT22;11392;57.390;-2.468;2022-11-15T17:25:30;10.30;99.90
22450;DHT22;11392;57.390;-2.468;2022-11-15T17:27:57;10.40;99.90
22450;DHT22;11392;57.390;-2.468;2022-11-15T17:30:23;10.40;99.90
22450;DHT22;11392;57.390;-2.468;2022-11-15T17:32:50;10.40;99.90
22450;DHT22;11392;57.390;-2.468;2022-11-15T17:35:18;10.40;99.90
22450;DHT22;11392;57.390;-2.468;2022-11-15T17:37:45;10.40;99.90
22450;DHT22;11392;57.390;-2.468;2022-11-15T17:40:14;10.40;99.90
22450;DHT22;11392;57.390;-2.468;2022-11-15T17:42:41;10.40;99.90
22450;DHT22;11392;57.390;-2.468;2022-11-15T17:45:09;10.40;99.90
22450;DHT22;11392;57.390;-2.468;2022-11-15T17:47:37;10.40;99.90
22450;DHT22;11392;57.390;-2.468;2022-11-15T17:50:04;10.40;99.90
22450;DHT22;11392;57.390;-2.468;2022-11-15T17:52:31;10.40;99.90
22450;DHT22;11392;57.390;-2.468;2022-11-15T17:54:58;10.40;99.90